Time;durP1;ratioP1;P1;durP2;ratioP2;P2;SDS_P1;SDS_P2;PMS_P1;PMS_P2;Temp;Humidity;BMP_temperature;BMP_pressure;BME280_temperature;BME280_humidity;BME280_pressure;Samples;Min_cycle;Max_cycle;Signal;HPM_P1;HPM_P2
2022/02/19 00:01:09;;;;;;;5.60;1.00;;;4.10;97.80;;;;;;5006849;28;20142;-62
2022/02/19 00:03:36;;;;;;;7.20;1.42;;;4.10;97.80;;;;;;5006022;28;20042;-62
2022/02/19 00:06:02;;;;;;;7.72;1.60;;;4.00;98.00;;;;;;5005530;28;20129;-62
2022/02/19 00:08:29;;;;;;;10.40;2.15;;;4.10;97.90;;;;;;5010198;28;20072;-62
2022/02/19 00:10:56;;;;;;;6.75;1.15;;;4.10;98.00;;;;;;5010960;28;20072;-63
2022/02/19 00:13:22;;;;;;;8.00;1.63;;;4.10;98.10;;;;;;5000208;28;20046;-63
2022/02/19 00:15:49;;;;;;;7.50;1.67;;;4.10;98.10;;;;;;4996270;28;20823;-63
2022/02/19 00:18:16;;;;;;;13.75;1.40;;;4.10;98.00;;;;;;5008668;28;20156;-63
2022/02/19 00:20:43;;;;;;;15.85;1.67;;;4.10;98.00;;;;;;5013007;28;20085;-63
2022/02/19 00:23:09;;;;;;;9.02;1.40;;;4.00;98.00;;;;;;4985595;28;20505;-63
2022/02/19 00:25:36;;;;;;;10.65;1.83;;;4.10;98.10;;;;;;5014415;28;20057;-63
2022/02/19 00:28:03;;;;;;;11.77;1.65;;;4.00;98.00;;;;;;5006892;28;20046;-63
2022/02/19 00:30:30;;;;;;;13.43;1.65;;;4.10;98.20;;;;;;5009197;28;20073;-63
2022/02/19 00:32:57;;;;;;;8.52;1.38;;;4.10;98.10;;;;;;5001618;28;20137;-63
2022/02/19 00:35:23;;;;;;;8.60;1.52;;;4.10;98.10;;;;;;5014811;28;20129;-63
2022/02/19 00:37:50;;;;;;;8.80;1.08;;;4.00;98.10;;;;;;5002576;28;20569;-61
2022/02/19 00:40:17;;;;;;;6.25;1.40;;;4.10;98.00;;;;;;5013760;28;20150;-62
2022/02/19 00:42:44;;;;;;;4.55;1.40;;;4.00;97.80;;;;;;5004948;28;20054;-62
2022/02/19 00:45:11;;;;;;;11.40;1.92;;;4.00;97.90;;;;;;5011424;28;20080;-62
2022/02/19 00:47:37;;;;;;;10.68;2.05;;;4.00;97.70;;;;;;5004164;28;20141;-62
2022/02/19 00:50:04;;;;;;;13.65;2.05;;;4.00;97.80;;;;;;5006019;28;20055;-62
2022/02/19 00:52:31;;;;;;;10.10;1.65;;;4.00;97.70;;;;;;5006388;28;20080;-62
2022/02/19 00:54:58;;;;;;;26.58;1.92;;;4.00;97.50;;;;;;5003727;28;20069;-62
2022/02/19 00:57:24;;;;;;;10.70;1.40;;;4.00;97.50;;;;;;5008575;28;20496;-63
2022/02/19 00:59:51;;;;;;;10.27;1.65;;;4.10;97.40;;;;;;5001217;28;20132;-61
2022/02/19 01:02:18;;;;;;;16.35;3.10;;;4.00;97.40;;;;;;5007975;28;20073;-62
2022/02/19 01:04:45;;;;;;;3.28;1.25;;;4.00;97.50;;;;;;4986348;28;20081;-63
2022/02/19 01:07:12;;;;;;;4.75;1.67;;;4.00;97.60;;;;;;5009020;28;20062;-62
2022/02/19 01:09:39;;;;;;;10.43;1.75;;;4.10;97.10;;;;;;4999988;28;20120;-62
2022/02/19 01:12:06;;;;;;;7.70;1.67;;;4.10;97.40;;;;;;5010601;28;20524;-62
2022/02/19 01:14:33;;;;;;;8.63;1.90;;;4.00;97.20;;;;;;5003435;28;20070;-61
2022/02/19 01:17:00;;;;;;;15.25;2.35;;;4.00;97.20;;;;;;4991236;28;20137;-62
2022/02/19 01:19:26;;;;;;;9.00;1.88;;;4.00;97.00;;;;;;5003451;28;20564;-62
2022/02/19 01:21:53;;;;;;;10.88;2.10;;;4.10;96.90;;;;;;4990912;28;20153;-62
2022/02/19 01:24:22;;;;;;;8.85;1.85;;;4.10;96.90;;;;;;5002072;28;20089;-62
2022/02/19 01:26:48;;;;;;;14.90;3.10;;;4.10;96.90;;;;;;4992049;28;20055;-62
2022/02/19 01:29:15;;;;;;;7.10;1.75;;;4.10;97.00;;;;;;4999867;28;20053;-62
2022/02/19 01:31:42;;;;;;;14.20;1.80;;;4.10;97.10;;;;;;4994327;28;20133;-62
2022/02/19 01:34:08;;;;;;;13.55;2.35;;;4.10;97.00;;;;;;4997189;28;20104;-62
2022/02/19 01:36:37;;;;;;;13.90;1.75;;;3.90;97.00;;;;;;4995349;28;20137;-62
2022/02/19 01:39:04;;;;;;;4.90;1.00;;;4.10;97.00;;;;;;4995048;28;20077;-62
2022/02/19 01:41:31;;;;;;;12.75;1.27;;;4.10;96.80;;;;;;4998403;28;20054;-62
2022/02/19 01:44:04;;;;;;;15.45;2.15;;;4.10;96.80;;;;;;4992692;28;20077;-62
2022/02/19 01:46:31;;;;;;;8.77;2.90;;;4.20;96.30;;;;;;4998600;28;20525;-62
2022/02/19 01:48:58;;;;;;;10.55;1.60;;;4.20;96.50;;;;;;4990448;28;20177;-62
2022/02/19 01:51:24;;;;;;;11.13;1.33;;;4.20;96.40;;;;;;5001560;28;20089;-62
2022/02/19 01:53:51;;;;;;;8.55;1.77;;;4.20;96.40;;;;;;4991758;28;20046;-61
2022/02/19 01:56:18;;;;;;;10.40;1.75;;;4.20;96.70;;;;;;5001675;28;20082;-62
2022/02/19 01:58:50;;;;;;;17.68;1.74;;;4.20;96.90;;;;;;4829718;28;10000485;-62
2022/02/19 02:01:17;;;;;;;9.73;2.33;;;4.20;97.10;;;;;;4994586;28;20277;-62
2022/02/19 02:03:43;;;;;;;10.20;1.85;;;4.10;97.40;;;;;;5009158;28;20273;-62
2022/02/19 02:06:10;;;;;;;9.48;1.65;;;4.10;97.50;;;;;;4999442;28;20054;-62
2022/02/19 02:08:37;;;;;;;13.27;1.83;;;4.20;97.70;;;;;;4990243;28;20157;-62
2022/02/19 02:11:04;;;;;;;17.55;3.70;;;4.10;98.00;;;;;;5002104;28;20088;-62
2022/02/19 02:13:31;;;;;;;17.00;2.50;;;4.10;98.20;;;;;;4956986;28;20051;-62
2022/02/19 02:15:57;;;;;;;10.35;1.83;;;4.10;98.20;;;;;;4999881;28;20620;-62
2022/02/19 02:18:24;;;;;;;14.30;3.20;;;4.10;98.30;;;;;;4992404;28;20113;-62
2022/02/19 02:20:52;;;;;;;16.50;2.60;;;4.00;98.60;;;;;;4997502;28;20050;-62
2022/02/19 02:23:20;;;;;;;8.27;2.03;;;4.00;98.80;;;;;;4994384;28;20077;-61
2022/02/19 02:25:46;;;;;;;9.85;1.45;;;4.00;98.70;;;;;;4995711;28;20042;-62
2022/02/19 02:28:13;;;;;;;10.82;2.65;;;4.00;98.90;;;;;;4996360;28;20054;-62
2022/02/19 02:30:40;;;;;;;8.60;1.42;;;4.00;98.90;;;;;;4993331;28;20149;-62
2022/02/19 02:33:16;;;;;;;10.93;2.13;;;4.00;98.80;;;;;;4998294;28;20144;-62
2022/02/19 02:35:42;;;;;;;7.50;1.52;;;3.90;99.10;;;;;;4992348;28;20052;-62
2022/02/19 02:38:09;;;;;;;8.65;1.63;;;3.90;99.10;;;;;;4999286;28;20105;-62
2022/02/19 02:40:36;;;;;;;9.63;1.55;;;3.90;99.30;;;;;;4991189;28;20129;-63
2022/02/19 02:43:03;;;;;;;13.38;2.65;;;3.90;99.20;;;;;;5000407;28;20054;-62
2022/02/19 02:45:30;;;;;;;12.45;2.00;;;3.90;99.20;;;;;;4991050;28;20136;-62
2022/02/19 02:48:16;;;;;;;6.38;1.52;;;3.90;99.10;;;;;;5000465;28;20061;-61
2022/02/19 02:50:43;;;;;;;17.80;3.15;;;3.90;99.30;;;;;;4990849;28;20124;-62
2022/02/19 02:53:30;;;;;;;11.55;1.50;;;3.90;99.20;;;;;;5000403;28;20056;-61
2022/02/19 02:55:56;;;;;;;5.70;1.83;;;3.90;99.40;;;;;;4990551;28;20140;-60
2022/02/19 02:58:23;;;;;;;11.00;1.70;;;3.90;99.40;;;;;;5000489;28;20585;-62
2022/02/19 03:00:51;;;;;;;10.73;1.60;;;3.90;99.40;;;;;;4989169;28;20155;-62
2022/02/19 03:03:18;;;;;;;5.43;1.33;;;3.80;99.50;;;;;;5001145;28;20050;-62
2022/02/19 03:05:44;;;;;;;7.30;1.25;;;3.80;99.30;;;;;;4992967;28;20523;-61
2022/02/19 03:08:11;;;;;;;8.82;1.40;;;3.80;99.30;;;;;;5002284;28;20114;-62
2022/02/19 03:10:38;;;;;;;13.88;1.45;;;4.00;99.40;;;;;;4989086;28;20158;-63
2022/02/19 03:13:05;;;;;;;14.20;1.42;;;3.80;99.20;;;;;;5000604;28;20131;-61
2022/02/19 03:15:32;;;;;;;14.73;1.63;;;3.80;99.30;;;;;;4989432;28;20050;-62
2022/02/19 03:17:59;;;;;;;6.18;2.95;;;3.80;99.40;;;;;;4981365;28;20074;-63
2022/02/19 03:20:27;;;;;;;7.13;1.65;;;3.90;99.30;;;;;;4991517;28;20556;-62
2022/02/19 03:22:54;;;;;;;9.13;1.23;;;3.80;99.40;;;;;;4996074;28;20137;-61
2022/02/19 03:25:20;;;;;;;11.93;1.58;;;3.80;99.40;;;;;;5000080;28;20134;-61
2022/02/19 03:27:47;;;;;;;9.07;1.50;;;3.80;99.50;;;;;;5001938;28;20089;-62
2022/02/19 03:30:14;;;;;;;7.57;1.05;;;3.80;99.70;;;;;;4984430;28;20106;-61
2022/02/19 03:32:41;;;;;;;3.45;1.10;;;3.80;99.50;;;;;;5003109;28;20054;-61
2022/02/19 03:35:08;;;;;;;15.65;1.60;;;3.80;99.80;;;;;;4997788;28;20139;-61
2022/02/19 03:37:36;;;;;;;5.72;1.33;;;3.80;99.90;;;;;;4990511;28;20073;-62
2022/02/19 03:40:06;;;;;;;12.15;1.92;;;3.80;99.90;;;;;;4982202;28;20078;-61
2022/02/19 03:42:36;;;;;;;21.95;2.33;;;3.80;99.90;;;;;;4990271;28;20050;-61
2022/02/19 03:45:05;;;;;;;6.07;1.10;;;3.70;99.90;;;;;;5004016;28;20054;-61
2022/02/19 03:47:32;;;;;;;10.73;1.20;;;3.70;99.90;;;;;;5006769;28;20144;-61
2022/02/19 03:49:58;;;;;;;5.30;1.27;;;3.70;99.90;;;;;;4999297;28;20046;-61
2022/02/19 03:52:25;;;;;;;5.47;1.25;;;3.70;99.90;;;;;;4989073;28;20137;-62
2022/02/19 03:54:52;;;;;;;8.57;1.85;;;3.70;99.90;;;;;;4995592;28;20046;-61
2022/02/19 03:57:18;;;;;;;5.00;1.20;;;3.70;99.90;;;;;;5008635;28;20161;-62
2022/02/19 03:59:45;;;;;;;14.48;1.20;;;3.70;99.90;;;;;;4995626;28;20568;-61
2022/02/19 04:02:12;;;;;;;7.18;1.52;;;3.70;99.90;;;;;;5015475;28;20103;-62
2022/02/19 04:04:39;;;;;;;3.47;0.95;;;3.70;99.90;;;;;;5014350;28;20092;-61
2022/02/19 04:07:05;;;;;;;5.40;1.25;;;3.70;99.90;;;;;;4990051;28;20141;-63
2022/02/19 04:09:32;;;;;;;6.63;1.08;;;3.70;99.90;;;;;;4996956;28;20050;-62
2022/02/19 04:11:59;;;;;;;3.78;1.33;;;3.70;99.90;;;;;;4992188;28;20077;-61
2022/02/19 04:14:26;;;;;;;7.40;1.73;;;3.60;99.90;;;;;;4977459;28;20084;-61
2022/02/19 04:16:52;;;;;;;7.10;1.23;;;3.60;99.90;;;;;;4994414;28;20501;-62
2022/02/19 04:19:19;;;;;;;10.30;2.08;;;3.60;99.90;;;;;;4992252;28;20588;-61
2022/02/19 04:21:46;;;;;;;4.97;1.33;;;3.50;99.90;;;;;;4997639;28;20137;-61
2022/02/19 04:24:13;;;;;;;5.85;1.10;;;3.50;99.90;;;;;;4993546;28;20050;-62
2022/02/19 04:26:39;;;;;;;3.95;1.00;;;3.60;99.90;;;;;;5002877;28;20133;-61
2022/02/19 04:29:06;;;;;;;10.43;1.73;;;3.60;99.90;;;;;;4993325;28;20054;-61
2022/02/19 04:31:33;;;;;;;7.43;1.48;;;3.60;99.90;;;;;;5003194;28;20145;-61
2022/02/19 04:33:59;;;;;;;9.25;1.08;;;3.60;99.90;;;;;;4992700;28;20085;-61
2022/02/19 04:36:26;;;;;;;7.80;1.40;;;3.60;99.90;;;;;;5003547;28;20070;-61
2022/02/19 04:38:53;;;;;;;11.68;1.65;;;3.60;99.90;;;;;;4992127;28;20149;-61
2022/02/19 04:41:20;;;;;;;10.20;1.65;;;3.60;99.90;;;;;;5004249;28;20054;-61
2022/02/19 04:43:46;;;;;;;12.20;1.75;;;3.50;99.90;;;;;;4991997;28;20149;-62
2022/02/19 04:46:13;;;;;;;9.60;1.17;;;3.50;99.90;;;;;;5004076;28;20046;-60
2022/02/19 04:48:40;;;;;;;10.80;2.33;;;3.50;99.90;;;;;;4992266;28;20077;-60
2022/02/19 04:51:07;;;;;;;11.07;1.80;;;3.60;99.90;;;;;;5001512;28;20136;-60
2022/02/19 04:53:33;;;;;;;8.18;2.05;;;3.50;99.90;;;;;;4994431;28;20505;-61
2022/02/19 04:56:00;;;;;;;13.23;2.30;;;3.50;99.90;;;;;;4999393;28;20049;-61
2022/02/19 04:58:27;;;;;;;7.63;1.48;;;3.50;99.90;;;;;;4996255;28;20082;-60
2022/02/19 05:00:54;;;;;;;9.68;1.70;;;3.60;99.90;;;;;;4996836;28;20073;-61
2022/02/19 05:03:21;;;;;;;13.30;1.42;;;3.60;99.90;;;;;;4998428;28;20054;-61
2022/02/19 05:05:48;;;;;;;8.10;1.40;;;3.60;99.90;;;;;;4994584;28;20097;-61
2022/02/19 05:08:14;;;;;;;11.38;1.85;;;3.50;99.90;;;;;;5000337;28;20100;-61
2022/02/19 05:10:41;;;;;;;6.13;1.10;;;3.60;99.90;;;;;;4992891;28;20895;-61
2022/02/19 05:13:08;;;;;;;4.85;1.33;;;3.60;99.90;;;;;;5002231;28;20093;-61
2022/02/19 05:15:35;;;;;;;6.03;0.95;;;3.50;99.90;;;;;;4992889;28;20684;-61
2022/02/19 05:18:05;;;;;;;10.13;1.70;;;3.50;99.90;;;;;;5002101;28;20047;-61
2022/02/19 05:20:32;;;;;;;5.32;1.95;;;3.50;99.90;;;;;;4992032;28;20089;-61
2022/02/19 05:22:58;;;;;;;6.85;1.10;;;3.40;99.90;;;;;;4999070;28;20077;-62
2022/02/19 05:25:25;;;;;;;2.15;0.93;;;3.40;99.90;;;;;;5010950;28;20128;-61
2022/02/19 05:27:52;;;;;;;12.23;1.75;;;3.40;99.90;;;;;;4997923;28;20093;-62
2022/02/19 05:30:20;;;;;;;7.68;1.20;;;3.40;99.90;;;;;;5010753;28;20531;-63
2022/02/19 05:32:47;;;;;;;4.85;1.17;;;3.40;99.90;;;;;;4997699;28;20046;-61
2022/02/19 05:35:14;;;;;;;15.52;2.38;;;3.40;99.90;;;;;;4991014;28;20054;-61
2022/02/19 05:37:40;;;;;;;7.47;1.20;;;3.40;99.90;;;;;;5000906;28;20077;-60
2022/02/19 05:40:08;;;;;;;11.90;2.35;;;3.40;99.90;;;;;;4992798;28;20445;-62
2022/02/19 05:42:34;;;;;;;13.73;1.60;;;3.40;99.90;;;;;;4998670;28;20077;-61
2022/02/19 05:45:01;;;;;;;13.32;2.03;;;3.40;99.90;;;;;;4977907;28;20140;-61
2022/02/19 05:47:28;;;;;;;15.77;1.23;;;3.30;99.90;;;;;;4996398;28;20077;-61
2022/02/19 05:49:55;;;;;;;13.02;1.50;;;3.40;99.90;;;;;;4997199;28;20518;-61
2022/02/19 05:52:22;;;;;;;10.40;1.35;;;3.40;99.90;;;;;;4993866;28;20129;-61
2022/02/19 05:54:51;;;;;;;8.15;1.92;;;3.40;99.90;;;;;;4999485;28;20058;-61
2022/02/19 05:57:18;;;;;;;8.80;1.45;;;3.40;99.90;;;;;;4992108;28;20050;-61
2022/02/19 05:59:44;;;;;;;10.82;2.05;;;3.40;99.90;;;;;;4983932;28;20137;-63
2022/02/19 06:02:11;;;;;;;8.82;1.42;;;3.40;99.90;;;;;;4991790;28;20136;-62
2022/02/19 06:04:38;;;;;;;10.60;2.08;;;3.30;99.90;;;;;;5001338;28;20058;-61
2022/02/19 06:07:05;;;;;;;7.75;2.05;;;3.50;99.90;;;;;;4990680;28;20472;-62
2022/02/19 06:09:31;;;;;;;8.70;1.73;;;3.30;99.90;;;;;;5002032;28;20050;-62
2022/02/19 06:11:58;;;;;;;8.70;1.45;;;3.40;99.90;;;;;;4990208;28;20093;-62
2022/02/19 06:14:25;;;;;;;12.82;1.95;;;3.30;99.90;;;;;;5002672;28;20045;-62
2022/02/19 06:16:52;;;;;;;18.27;2.00;;;3.40;99.90;;;;;;4990246;28;20085;-62
2022/02/19 06:19:18;;;;;;;11.18;1.85;;;3.40;99.90;;;;;;5002128;28;20129;-62
2022/02/19 06:21:45;;;;;;;25.30;2.60;;;3.40;99.90;;;;;;5001627;28;20144;-62
2022/02/19 06:24:12;;;;;;;11.10;2.67;;;3.40;99.90;;;;;;5004988;28;20100;-62
2022/02/19 06:26:39;;;;;;;9.10;1.45;;;3.40;99.90;;;;;;4992505;28;20141;-62
2022/02/19 06:29:05;;;;;;;8.30;1.90;;;3.40;99.90;;;;;;4997292;28;20133;-62
2022/02/19 06:31:32;;;;;;;5.03;0.98;;;3.40;99.90;;;;;;4994615;28;20050;-62
2022/02/19 06:33:59;;;;;;;14.88;2.72;;;3.40;99.90;;;;;;4994843;28;20088;-63
2022/02/19 06:36:26;;;;;;;9.55;4.05;;;3.40;99.90;;;;;;4996620;28;20085;-62
2022/02/19 06:38:52;;;;;;;5.13;1.27;;;3.40;99.90;;;;;;4992646;28;20092;-62
2022/02/19 06:41:19;;;;;;;12.15;1.92;;;3.40;99.90;;;;;;4998902;28;20053;-62
2022/02/19 06:43:46;;;;;;;10.95;1.52;;;3.40;99.90;;;;;;4990861;28;20653;-62
2022/02/19 06:46:13;;;;;;;7.68;1.73;;;3.50;99.90;;;;;;4999917;28;20046;-63
2022/02/19 06:48:39;;;;;;;7.07;1.40;;;3.40;99.90;;;;;;4973646;28;20137;-62
2022/02/19 06:51:06;;;;;;;12.70;1.20;;;3.50;99.90;;;;;;5000257;28;20125;-62
2022/02/19 06:53:33;;;;;;;15.38;1.63;;;3.40;99.90;;;;;;4989883;28;20062;-62
2022/02/19 06:56:00;;;;;;;14.00;1.58;;;3.40;99.90;;;;;;4984095;28;20073;-62
2022/02/19 06:58:26;;;;;;;7.95;1.40;;;3.40;99.90;;;;;;4989349;28;20078;-62
2022/02/19 07:00:53;;;;;;;6.45;1.85;;;3.40;99.90;;;;;;5001391;28;20457;-62
2022/02/19 07:03:20;;;;;;;8.07;2.80;;;3.40;99.90;;;;;;4989300;28;20089;-62
2022/02/19 07:05:51;;;;;;;15.35;1.75;;;3.40;99.90;;;;;;5000475;28;20053;-63
2022/02/19 07:08:21;;;;;;;14.90;1.25;;;3.40;99.90;;;;;;4989361;28;20096;-62
2022/02/19 07:10:48;;;;;;;12.05;2.03;;;3.30;99.90;;;;;;4999288;28;20042;-62
2022/02/19 07:13:14;;;;;;;4.13;1.17;;;3.30;99.90;;;;;;4990930;28;20136;-63
2022/02/19 07:15:41;;;;;;;12.50;1.70;;;3.30;99.90;;;;;;4997183;28;20078;-62
2022/02/19 07:18:08;;;;;;;11.32;2.08;;;3.30;99.90;;;;;;4993137;28;20141;-62
2022/02/19 07:20:37;;;;;;;7.25;1.25;;;3.40;99.90;;;;;;4994597;28;20133;-62
2022/02/19 07:23:03;;;;;;;5.88;1.08;;;3.40;99.90;;;;;;4995128;28;20078;-62
2022/02/19 07:25:30;;;;;;;11.50;1.55;;;3.40;99.90;;;;;;4992335;28;20124;-62
2022/02/19 07:27:57;;;;;;;4.20;1.50;;;3.40;99.90;;;;;;5002736;28;20141;-62
2022/02/19 07:30:24;;;;;;;5.70;1.10;;;3.40;99.90;;;;;;4990306;28;20099;-62
2022/02/19 07:32:52;;;;;;;12.07;1.40;;;3.40;99.90;;;;;;4999191;28;20082;-63
2022/02/19 07:35:19;;;;;;;7.50;1.50;;;3.40;99.90;;;;;;4993673;28;20050;-62
2022/02/19 07:37:46;;;;;;;5.15;1.60;;;3.50;99.90;;;;;;4997462;28;20564;-62
2022/02/19 07:40:13;;;;;;;10.68;2.83;;;3.50;99.90;;;;;;5007297;28;20568;-62
2022/02/19 07:42:39;;;;;;;8.27;1.20;;;3.50;99.90;;;;;;4997263;28;20085;-62
2022/02/19 07:45:07;;;;;;;15.07;1.70;;;3.60;99.90;;;;;;4990721;28;20092;-62
2022/02/19 07:47:34;;;;;;;11.75;1.48;;;3.60;99.90;;;;;;5000120;28;20073;-62
2022/02/19 07:58:22;;;;;;;12.45;2.20;;;3.80;99.90;;;;;;5001416;28;20088;-63
2022/02/19 08:00:53;;;;;;;11.73;2.40;;;3.80;99.90;;;;;;5011845;28;20096;-63
2022/02/19 08:03:20;;;;;;;10.00;1.20;;;3.80;99.90;;;;;;5003990;28;20116;-63
2022/02/19 08:05:48;;;;;;;13.52;1.80;;;3.80;99.90;;;;;;4992648;28;20090;-66
2022/02/19 08:08:15;;;;;;;13.48;2.05;;;3.80;99.90;;;;;;4998463;28;20058;-64
2022/02/19 08:10:43;;;;;;;7.15;1.55;;;3.80;99.90;;;;;;5012248;28;20058;-63
2022/02/19 08:13:09;;;;;;;3.42;1.25;;;3.80;99.90;;;;;;4999122;28;20112;-63
2022/02/19 08:15:36;;;;;;;3.28;1.10;;;3.80;99.90;;;;;;5012213;28;20050;-63
2022/02/19 08:18:04;;;;;;;11.10;2.55;;;3.90;99.90;;;;;;5001131;28;20112;-62
2022/02/19 08:20:31;;;;;;;8.45;1.50;;;3.90;99.90;;;;;;5010375;28;20092;-63
2022/02/19 08:22:58;;;;;;;8.55;1.77;;;3.90;99.90;;;;;;5003123;28;20062;-63
2022/02/19 08:25:25;;;;;;;3.95;1.23;;;3.90;99.90;;;;;;4992486;28;20051;-63
2022/02/19 08:27:52;;;;;;;7.88;1.50;;;3.90;99.90;;;;;;4987906;28;20081;-63
2022/02/19 08:30:20;;;;;;;13.73;2.53;;;3.90;99.90;;;;;;5005717;28;20136;-63
2022/02/19 08:32:46;;;;;;;13.20;1.95;;;4.00;99.90;;;;;;4984869;28;20470;-63
2022/02/19 08:35:13;;;;;;;6.82;1.58;;;4.00;99.90;;;;;;5002800;28;20078;-63
2022/02/19 08:37:41;;;;;;;14.27;2.20;;;4.00;99.90;;;;;;4998191;28;20141;-63
2022/02/19 08:40:14;;;;;;;7.25;1.65;;;4.00;99.90;;;;;;5001574;28;20053;-63
2022/02/19 08:42:42;;;;;;;10.23;1.52;;;4.10;99.90;;;;;;4651813;28;10000076;-62
2022/02/19 08:45:10;;;;;;;8.98;1.50;;;4.10;99.90;;;;;;4999729;28;20088;-64
2022/02/19 08:47:40;;;;;;;2.67;1.00;;;4.20;99.90;;;;;;4997796;28;20045;-63
2022/02/19 08:50:11;;;;;;;15.98;2.30;;;4.30;99.90;;;;;;4997949;28;20054;-63
2022/02/19 08:52:39;;;;;;;13.18;1.48;;;4.40;99.90;;;;;;4982365;28;20106;-63
2022/02/19 08:55:07;;;;;;;12.85;2.25;;;4.60;99.90;;;;;;4996922;28;20046;-63
2022/02/19 08:57:33;;;;;;;5.82;1.30;;;4.70;99.60;;;;;;4996944;28;20160;-61
2022/02/19 09:00:00;;;;;;;14.95;1.73;;;4.80;99.80;;;;;;5000932;28;20140;-61
2022/02/19 09:02:27;;;;;;;5.07;1.58;;;5.00;99.20;;;;;;4989817;28;20108;-62
2022/02/19 09:04:54;;;;;;;11.90;2.13;;;5.30;99.30;;;;;;4997462;28;20136;-62
2022/02/19 09:07:20;;;;;;;11.63;2.75;;;5.30;99.00;;;;;;4998932;28;20076;-61
2022/02/19 09:09:47;;;;;;;9.15;1.52;;;5.50;99.00;;;;;;5001723;28;20085;-62
2022/02/19 09:12:14;;;;;;;8.57;1.55;;;5.60;98.20;;;;;;4990668;28;20046;-64
2022/02/19 09:14:41;;;;;;;12.60;1.58;;;5.90;98.90;;;;;;4997019;28;20089;-63
2022/02/19 09:17:08;;;;;;;3.88;1.25;;;6.10;98.30;;;;;;4997318;28;20042;-62
2022/02/19 09:19:35;;;;;;;3.67;1.42;;;6.30;98.10;;;;;;5002728;28;20140;-63
2022/02/19 09:22:02;;;;;;;13.75;2.50;;;6.40;97.30;;;;;;5005774;28;20058;-62
2022/02/19 09:24:29;;;;;;;12.60;2.67;;;6.40;97.70;;;;;;5005485;28;20096;-62
2022/02/19 09:26:56;;;;;;;9.57;2.10;;;6.30;97.90;;;;;;5004206;28;20050;-62
2022/02/19 09:29:24;;;;;;;8.45;1.60;;;6.40;97.70;;;;;;5006112;28;20050;-62
2022/02/19 09:31:51;;;;;;;10.20;1.80;;;6.40;97.80;;;;;;5003119;28;20603;-63
2022/02/19 09:34:18;;;;;;;14.23;1.95;;;6.30;97.90;;;;;;5006212;28;20061;-62
2022/02/19 09:36:45;;;;;;;5.93;1.65;;;6.30;98.10;;;;;;5003206;28;20065;-63
2022/02/19 09:39:12;;;;;;;12.18;2.65;;;6.30;98.00;;;;;;5005277;28;20093;-64
2022/02/19 09:41:44;;;;;;;14.95;2.00;;;6.30;97.70;;;;;;4997151;28;20054;-63
2022/02/19 09:44:11;;;;;;;6.10;1.60;;;6.30;98.10;;;;;;5005971;28;20144;-63
2022/02/19 09:46:38;;;;;;;14.65;2.63;;;6.40;98.10;;;;;;4976814;28;20042;-63
2022/02/19 09:49:05;;;;;;;9.55;2.05;;;6.40;98.10;;;;;;4988591;28;20432;-63
2022/02/19 09:51:33;;;;;;;11.85;2.20;;;6.40;98.40;;;;;;4993318;28;20088;-63
2022/02/19 09:54:00;;;;;;;16.40;2.47;;;6.40;98.20;;;;;;5006644;28;20176;-62
2022/02/19 09:56:28;;;;;;;10.02;1.40;;;6.40;98.10;;;;;;5003534;28;20595;-63
2022/02/19 09:58:55;;;;;;;9.43;1.50;;;6.40;98.40;;;;;;4988698;28;20077;-63
2022/02/19 10:01:23;;;;;;;6.38;1.67;;;6.40;98.10;;;;;;4997189;28;20077;-63
2022/02/19 10:04:03;;;;;;;20.42;2.20;;;6.50;98.00;;;;;;4990489;28;20058;-63
2022/02/19 10:06:32;;;;;;;10.90;1.80;;;6.60;97.90;;;;;;4996714;28;20050;-63
2022/02/19 10:09:18;;;;;;;5.93;1.67;;;6.70;98.20;;;;;;5004850;28;20585;-63
2022/02/19 10:11:48;;;;;;;8.57;1.35;;;6.70;98.00;;;;;;4997906;28;20155;-63
2022/02/19 10:14:25;;;;;;;11.85;2.03;;;6.80;98.20;;;;;;5005707;28;20152;-64
2022/02/19 10:17:17;;;;;;;10.43;2.08;;;6.80;98.50;;;;;;5002236;28;20453;-63
2022/02/19 10:19:51;;;;;;;9.82;1.45;;;6.90;98.20;;;;;;5005255;28;20050;-62
2022/02/19 10:22:29;;;;;;;8.90;1.45;;;7.00;98.10;;;;;;4991906;28;20064;-62
2022/02/19 10:24:57;;;;;;;11.70;2.05;;;7.00;98.40;;;;;;4987468;28;20140;-61
2022/02/19 10:27:43;;;;;;;14.77;1.60;;;7.10;98.40;;;;;;4998149;28;20076;-64
2022/02/19 10:30:09;;;;;;;5.75;2.13;;;7.10;98.00;;;;;;4985889;28;20100;-61
2022/02/19 10:32:50;;;;;;;9.13;1.45;;;7.10;98.40;;;;;;4998720;28;20490;-61
2022/02/19 10:35:17;;;;;;;12.35;2.40;;;7.20;98.20;;;;;;4988315;28;20512;-62
2022/02/19 10:37:50;;;;;;;17.45;2.30;;;7.30;98.50;;;;;;4996513;28;20053;-64
2022/02/19 10:40:33;;;;;;;10.95;1.83;;;7.30;98.40;;;;;;4991289;28;20085;-63
2022/02/19 10:43:04;;;;;;;16.15;2.80;;;7.30;98.40;;;;;;5000117;28;20053;-64
2022/02/19 10:45:32;;;;;;;14.10;2.33;;;7.40;98.60;;;;;;4972566;28;20046;-63
2022/02/19 10:48:15;;;;;;;13.93;2.72;;;7.40;98.70;;;;;;4975285;28;20141;-61
2022/02/19 10:50:44;;;;;;;15.10;2.50;;;7.40;98.40;;;;;;4991746;28;20050;-63
2022/02/19 10:53:18;;;;;;;8.88;2.53;;;7.50;98.80;;;;;;4995039;28;20072;-64
2022/02/19 10:55:45;;;;;;;11.27;1.50;;;7.50;98.80;;;;;;4987891;28;20054;-62
2022/02/19 10:58:12;;;;;;;20.02;2.53;;;7.50;98.40;;;;;;4996346;28;20425;-64
2022/02/19 11:00:40;;;;;;;8.82;2.05;;;7.60;98.50;;;;;;5002489;28;20135;-64
2022/02/19 11:03:09;;;;;;;14.05;2.35;;;7.60;98.60;;;;;;4998409;28;20066;-63
2022/02/19 11:05:36;;;;;;;15.23;2.00;;;7.60;98.60;;;;;;4993598;28;20495;-64
2022/02/19 11:08:03;;;;;;;11.27;2.47;;;7.60;98.90;;;;;;4998692;28;20125;-63
2022/02/19 11:10:33;;;;;;;11.05;2.90;;;7.70;98.90;;;;;;4999233;28;20081;-63
2022/02/19 11:13:00;;;;;;;11.68;2.25;;;7.70;99.00;;;;;;5002428;28;20813;-63
2022/02/19 11:15:27;;;;;;;13.23;2.90;;;7.70;99.10;;;;;;4994797;28;20124;-63
2022/02/19 11:17:54;;;;;;;15.70;2.50;;;7.70;99.20;;;;;;4987547;28;20148;-64
2022/02/19 11:20:24;;;;;;;14.20;2.03;;;7.70;99.10;;;;;;4997509;28;20061;-63
2022/02/19 11:22:55;;;;;;;12.68;2.08;;;7.70;98.90;;;;;;4987802;28;20069;-64
2022/02/19 11:25:25;;;;;;;17.42;2.50;;;7.70;98.70;;;;;;5001149;28;20053;-63
2022/02/19 11:28:06;;;;;;;12.50;2.67;;;7.70;98.90;;;;;;5004558;28;20093;-63
2022/02/19 11:30:37;;;;;;;13.93;2.45;;;7.70;98.50;;;;;;4990773;28;20172;-64
2022/02/19 11:33:04;;;;;;;14.40;2.08;;;7.70;98.60;;;;;;4987039;28;20050;-64
2022/02/19 11:35:45;;;;;;;14.98;2.15;;;7.80;98.40;;;;;;5001753;28;20085;-64
2022/02/19 11:38:22;;;;;;;14.57;2.33;;;7.80;98.50;;;;;;5003394;28;20134;-64
2022/02/19 11:40:51;;;;;;;13.88;2.10;;;7.80;98.40;;;;;;4996969;28;20452;-63
2022/02/19 11:43:41;;;;;;;14.25;2.42;;;7.80;98.30;;;;;;5011510;28;20573;-63
2022/02/19 11:46:31;;;;;;;14.25;2.92;;;7.80;98.60;;;;;;4996838;28;20092;-63
2022/02/19 11:49:22;;;;;;;15.15;2.00;;;7.80;99.30;;;;;;4996842;28;20144;-64
2022/02/19 11:52:11;;;;;;;11.10;1.67;;;7.70;99.60;;;;;;4999036;28;20088;-64
2022/02/19 11:55:31;;;;;;;14.57;2.70;;;7.70;99.60;;;;;;5001625;28;20109;-62
2022/02/19 11:58:12;;;;;;;10.32;2.10;;;7.70;99.80;;;;;;5006441;28;20068;-63
2022/02/19 12:00:44;;;;;;;15.18;2.42;;;7.70;99.90;;;;;;4993866;28;20572;-63
2022/02/19 12:03:23;;;;;;;17.33;3.03;;;7.70;99.90;;;;;;4986343;28;20050;-63
2022/02/19 12:06:15;;;;;;;15.68;1.98;;;7.60;99.90;;;;;;4998135;28;20061;-63
2022/02/19 12:08:48;;;;;;;13.77;2.90;;;7.70;99.90;;;;;;4969887;28;20557;-63
2022/02/19 12:11:16;;;;;;;21.00;3.00;;;7.60;99.90;;;;;;4998307;28;20053;-64
2022/02/19 12:13:44;;;;;;;27.98;3.20;;;7.60;99.90;;;;;;4985935;28;20053;-63
2022/02/19 12:18:57;;;;;;;18.17;3.03;;;7.40;99.90;;;;;;4986409;28;20050;-64
2022/02/19 12:21:34;;;;;;;18.33;2.63;;;7.20;99.90;;;;;;4998153;28;20058;-63
2022/02/19 12:24:19;;;;;;;15.23;2.72;;;7.00;99.90;;;;;;4986967;28;20066;-63
2022/02/19 12:26:55;;;;;;;14.98;2.55;;;6.90;99.90;;;;;;4991877;28;20698;-63
2022/02/19 12:29:28;;;;;;;19.83;2.58;;;6.70;99.90;;;;;;5004905;28;20068;-63
2022/02/19 12:32:05;;;;;;;20.20;3.88;;;6.70;99.90;;;;;;5005756;28;20085;-64
2022/02/19 12:34:33;;;;;;;14.65;2.05;;;6.50;99.90;;;;;;5006009;28;20401;-64
2022/02/19 12:37:00;;;;;;;27.00;7.50;;;6.50;99.90;;;;;;4992814;28;20168;-64
2022/02/19 12:39:27;;;;;;;15.90;4.57;;;6.40;99.90;;;;;;5006253;28;20254;-64
2022/02/19 12:41:57;;;;;;;14.27;2.63;;;6.40;99.90;;;;;;4994173;28;20054;-64
2022/02/19 12:44:24;;;;;;;27.33;3.30;;;6.40;99.90;;;;;;5007770;28;20042;-64
2022/02/19 12:46:55;;;;;;;12.48;2.10;;;6.40;99.90;;;;;;5001830;28;20053;-63
2022/02/19 12:49:26;;;;;;;19.85;3.97;;;6.40;99.90;;;;;;4997421;28;20471;-64
2022/02/19 12:51:57;;;;;;;13.60;2.53;;;6.40;99.90;;;;;;4973097;28;20733;-63
2022/02/19 12:54:33;;;;;;;16.70;3.30;;;6.40;99.90;;;;;;5008570;28;20057;-64
2022/02/19 12:57:00;;;;;;;28.52;3.30;;;6.40;99.90;;;;;;4999171;28;20429;-64
2022/02/19 12:59:28;;;;;;;14.40;2.60;;;6.40;99.90;;;;;;4993736;28;20097;-64
2022/02/19 13:01:56;;;;;;;16.33;3.03;;;6.40;99.90;;;;;;4993366;28;20046;-63
2022/02/19 13:04:32;;;;;;;15.13;1.98;;;6.40;99.90;;;;;;4977805;28;20077;-64
2022/02/19 13:06:59;;;;;;;23.23;3.38;;;6.40;99.90;;;;;;4992424;28;20137;-65
2022/02/19 13:09:27;;;;;;;20.25;3.63;;;6.40;99.90;;;;;;4983234;28;20053;-64